Lake Country Regional Airport
KW63 : now visible

Airfield :











YOU CAN JOIN US ON...

 
LOGIN :

Register | Disclaimer

   EN    FR    IT 

 









Legend :    VFR   Marginal VFR   IFR   Intensive IFR   Very Intensive IFR
Visi :
Ceiling :
>= 8 km
>= 3000ft
5 to 8 km
1000 to 3000 ft
1500m to 5 km
500 to 1000 ft
800 to 1500m
200 to 500 ft
< 800m
< 200 ft
Symbols :   Thunderstorms  Fog  Heavy snow  Heavy precipitations  Wind > 20 kt







- Airport Elevation : 421 ft


KW63 - Lake Country Regional

CURRENT METAR :
  • 221915Z AUTO 07007KT 10SM CLR 25/11 A3023 RMK AO1

EXPIRED METARs :
  • 221855Z AUTO 04004KT 10SM CLR 25/11 A3024 RMK AO1
  • 221835Z AUTO 00000KT 10SM CLR 25/10 A3024 RMK AO1
  • 221815Z AUTO 13004KT 10SM SCT060 25/11 A3024 RMK AO1
  • 221755Z AUTO 04003KT 10SM CLR 25/10 A3024 RMK AO1
  • 221735Z AUTO 04007KT 10SM CLR 23/10 A3024 RMK AO1
  • 221715Z AUTO 08004KT 10SM CLR 23/10 A3025 RMK AO1
  • 221655Z AUTO 02003KT 10SM CLR 23/10 A3025 RMK AO1
  • 221635Z AUTO 00000KT 10SM CLR 23/10 A3025 RMK AO1

TAF N/A
No reported NOTAMs for that airfield.



MET'MAP, your aeronautical weather chart ! - Copyright ORBIFLY December 2007 - Disclaimer

ORBIFLY MET'MAP TEAM :

Programming & Development : Alexandra Zaïnal
Concept & Development : Baudouin d'Aumeries
Co-Development & Prog : Marc-Olivier Méhu
Technical & hardware support : Manuel Goepfert

Contact : metmap@orbifly.com




SOURCES & CREDITS :

   NOAA       Earth
Advisory